Etusivu
METAR-TAF:

METAR-TAF

Lentoasemat :

Halmstad, Ruotsi

Leveyspiiri: 56-41N, Pituuspiiri: 012-50E, korkeus merenpinnasta: 30 m

Tämänhetkinen sää

Tämä raportti tehtiin 15 minuuttia sitten, kello 04.50 UTC
Tuuli 2 kn koillisesta
Lämpötila 10°C
Kosteus 93%
Ilmanpaine 1015 hPa
Näkyvyys: 6000 m
utua

METAR: ESMT 230450Z 04002KT 6000 BR NSC 10/09 Q1015

Aika: 07:05 (05:05 UTC)

Sääennuste

Tämä raportti tehtiin 1 tunti ja 37 minuuttia sitten, kello 03.28 UTC
Ennuste voimassa 23. päivästä klo 04 UTC - 23. päivään klo 12 UTC
Tuuli 5 kn lännestä
Näkyvyys 10 km tai enemmän
Muutamia pilviä 4000 ft:n korkeudessa
Ajoittain
23. päivästä klo 04 UTC - 23. päivään klo 05 UTC
Näkyvyys: 1500 m
utua

TAF: ESMT 230328Z 2304/2312 27005KT 9999 FEW040 TEMPO 2304/2305 1500 BR

Säähavainnot ja -ennusteet yli 4000 lentoasemalta (METAR- ja TAF-raportit).

Käytössä olevat sääasemat on merkitty karttaan keltaisilla ja punaisilla pisteillä.

Aseta hiiri pisteen päälle nähdäksesi sääaseman nimen.

Klikkaa sitten nähdäksesi säähavainnot ja -ennusteet.

Kartan vaihtaminen: klikkaa mustalla rastilla varustettuja vihreitä pisteitä, niin voit zoomata sisään; viivalla varustettua vihreää pistettä, niin voit zoomata ulos tai vihreitä nuolia, niin pääset viereisille kartoille.


METAR-TAF: